createdAt,value
2023-05-25T00:02:04.655Z,60.22
2023-05-25T00:05:10.940Z,70.30
2023-05-25T00:08:14.308Z,63.08
2023-05-25T00:11:19.509Z,61.90
2023-05-25T00:14:22.902Z,59.25
2023-05-25T00:17:31.923Z,58.67
2023-05-25T00:20:36.718Z,61.65
2023-05-25T00:23:39.983Z,63.00
2023-05-25T00:26:46.177Z,57.42
2023-05-25T00:29:49.966Z,62.20
2023-05-25T00:32:54.037Z,62.17
2023-05-25T00:36:00.176Z,69.40
2023-05-25T00:39:03.496Z,67.07
2023-05-25T00:42:08.148Z,67.57
2023-05-25T00:45:12.582Z,67.32
2023-05-25T00:48:16.666Z,64.78
2023-05-25T00:51:21.409Z,63.00
2023-05-25T00:54:24.688Z,62.10
2023-05-25T00:57:34.269Z,61.80
2023-05-25T01:00:39.868Z,59.97
2023-05-25T01:03:46.743Z,65.35
2023-05-25T01:06:53.435Z,61.47
2023-05-25T01:10:01.620Z,59.83
2023-05-25T01:13:07.839Z,62.60
2023-05-25T01:16:11.756Z,63.25
2023-05-25T01:19:18.811Z,56.72
2023-05-25T01:22:30.154Z,65.35
2023-05-25T01:25:40.077Z,66.78
2023-05-25T01:28:47.834Z,60.28
2023-05-25T01:31:53.066Z,57.78
2023-05-25T01:34:59.202Z,65.43
2023-05-25T01:38:04.107Z,64.53
2023-05-25T01:41:07.418Z,66.25
2023-05-25T01:44:11.048Z,58.50
2023-05-25T01:47:23.004Z,61.03
2023-05-25T01:50:40.609Z,55.03
2023-05-25T01:53:53.739Z,54.42
2023-05-25T01:57:01.369Z,56.38
2023-05-25T02:00:05.840Z,57.40
2023-05-25T02:03:29.548Z,54.95
2023-05-25T02:06:32.846Z,53.97
2023-05-25T02:09:43.537Z,57.92
2023-05-25T02:12:48.241Z,56.47
2023-05-25T02:15:51.681Z,58.13
2023-05-25T02:18:58.054Z,53.63
2023-05-25T02:22:01.338Z,53.05
2023-05-25T02:25:06.635Z,56.15
2023-05-25T02:28:09.955Z,57.90
2023-05-25T02:31:13.257Z,53.78
2023-05-25T02:34:16.590Z,60.95
2023-05-25T02:37:19.995Z,58.47
2023-05-25T02:40:25.953Z,59.40
2023-05-25T02:43:29.890Z,59.25
2023-05-25T02:46:33.828Z,67.60
2023-05-25T02:49:37.799Z,61.65
2023-05-25T02:52:41.120Z,57.40
2023-05-25T02:55:46.370Z,58.38
2023-05-25T02:58:54.552Z,60.88
2023-05-25T03:02:04.333Z,62.47
2023-05-25T03:05:08.812Z,58.58
2023-05-25T03:08:13.062Z,60.05
2023-05-25T03:11:17.854Z,64.82
2023-05-25T03:14:22.141Z,60.78
2023-05-25T03:17:31.748Z,60.95
2023-05-25T03:20:35.263Z,66.13
2023-05-25T03:23:38.660Z,68.07
2023-05-25T03:26:46.184Z,63.25
2023-05-25T03:29:51.206Z,71.82
2023-05-25T03:32:54.541Z,65.60
2023-05-25T03:35:58.261Z,71.07
2023-05-25T03:39:01.587Z,67.40
2023-05-25T03:42:07.558Z,70.75
2023-05-25T03:45:11.935Z,71.55
2023-05-25T03:48:17.321Z,75.90
2023-05-25T03:51:20.971Z,76.20
2023-05-25T03:54:24.271Z,67.78
2023-05-25T03:57:29.166Z,74.10
2023-05-25T04:00:32.496Z,80.78
2023-05-25T04:03:36.289Z,76.97
2023-05-25T04:06:40.225Z,77.60
2023-05-25T04:09:44.052Z,74.05
2023-05-25T04:12:49.047Z,76.68
2023-05-25T04:15:52.896Z,88.35
2023-05-25T04:18:59.566Z,87.45
2023-05-25T04:22:03.022Z,87.78
2023-05-25T04:25:07.476Z,93.70
2023-05-25T04:28:12.679Z,86.97
2023-05-25T04:31:51.638Z,72.97
2023-05-25T04:35:14.956Z,92.20
2023-05-25T04:38:21.555Z,95.03
2023-05-25T04:41:25.898Z,87.60
2023-05-25T04:44:34.559Z,88.60
2023-05-25T04:47:41.316Z,95.28
2023-05-25T04:50:45.285Z,91.53
2023-05-25T04:53:48.840Z,97.47
2023-05-25T04:56:52.396Z,92.90
2023-05-25T04:59:58.291Z,84.22
2023-05-25T05:03:02.093Z,92.68
2023-05-25T05:06:06.584Z,85.38
2023-05-25T05:09:10.295Z,87.53
2023-05-25T05:12:14.387Z,88.03
2023-05-25T05:15:25.113Z,78.30
2023-05-25T05:18:29.389Z,83.00
2023-05-25T05:21:34.125Z,88.25
2023-05-25T05:24:40.821Z,87.75
2023-05-25T05:27:45.508Z,82.55
2023-05-25T05:30:56.162Z,78.75
2023-05-25T05:33:59.724Z,83.45
2023-05-25T05:37:03.193Z,85.25
2023-05-25T05:40:07.889Z,85.43
2023-05-25T05:43:14.215Z,88.53
2023-05-25T05:46:19.052Z,89.25
2023-05-25T05:49:22.586Z,89.13
2023-05-25T05:52:25.918Z,86.53
2023-05-25T05:55:29.281Z,94.65
2023-05-25T05:58:33.336Z,100.38
2023-05-25T06:01:38.588Z,97.85
2023-05-25T06:04:42.414Z,92.75
2023-05-25T06:07:46.154Z,96.57
2023-05-25T06:10:49.834Z,98.68
2023-05-25T06:13:53.059Z,95.75
2023-05-25T06:16:58.066Z,95.25
2023-05-25T06:20:01.815Z,92.38
2023-05-25T06:23:05.374Z,94.03
2023-05-25T06:26:09.441Z,91.70
2023-05-25T06:29:16.123Z,82.45
2023-05-25T06:32:21.790Z,81.05
2023-05-25T06:35:25.329Z,84.70
2023-05-25T06:38:30.056Z,86.28
2023-05-25T06:41:33.934Z,81.30
2023-05-25T06:44:38.973Z,79.43
2023-05-25T06:47:46.514Z,82.07
2023-05-25T06:50:49.974Z,80.00
2023-05-25T06:53:53.270Z,76.43
2023-05-25T06:56:56.789Z,70.70
2023-05-25T07:00:00.053Z,68.55
2023-05-25T07:03:05.013Z,74.93
2023-05-25T07:06:09.079Z,69.93
2023-05-25T07:09:13.605Z,68.20
2023-05-25T07:12:16.811Z,68.18
2023-05-25T07:15:21.792Z,67.18
2023-05-25T07:18:27.332Z,69.00
2023-05-25T07:21:33.684Z,68.22
2023-05-25T07:24:36.965Z,70.88
2023-05-25T07:27:40.322Z,67.93
2023-05-25T07:30:43.672Z,65.78
2023-05-25T07:33:48.440Z,66.47
2023-05-25T07:36:51.774Z,64.43
2023-05-25T07:39:55.125Z,65.68
2023-05-25T07:42:58.607Z,65.20
2023-05-25T07:46:02.414Z,60.53
2023-05-25T07:49:12.133Z,56.20
2023-05-25T07:52:15.491Z,56.97
2023-05-25T07:55:19.197Z,56.88
2023-05-25T07:58:22.671Z,56.70
2023-05-25T08:01:27.046Z,54.85
2023-05-25T08:04:32.345Z,56.70
2023-05-25T08:07:35.841Z,51.80
2023-05-25T08:10:39.206Z,48.42
2023-05-25T08:13:43.005Z,49.15
2023-05-25T08:16:46.349Z,51.22
2023-05-25T08:19:51.349Z,45.33
2023-05-25T08:22:54.845Z,44.50
2023-05-25T08:25:58.908Z,45.60
2023-05-25T08:29:02.493Z,42.00
2023-05-25T08:32:06.180Z,44.33
2023-05-25T08:35:14.170Z,44.25
2023-05-25T08:38:17.636Z,46.95
2023-05-25T08:41:21.413Z,44.67
2023-05-25T08:44:24.938Z,50.55
2023-05-25T08:47:32.650Z,45.83
2023-05-25T08:50:39.414Z,44.40
2023-05-25T08:53:44.526Z,43.42
2023-05-25T08:56:51.719Z,43.28
2023-05-25T09:00:01.771Z,42.45
2023-05-25T09:03:12.146Z,47.20
2023-05-25T09:06:18.213Z,48.42
2023-05-25T09:09:21.632Z,43.25
2023-05-25T09:12:25.340Z,48.15
2023-05-25T09:15:29.330Z,47.40
2023-05-25T09:18:32.673Z,47.33
2023-05-25T09:21:39.587Z,46.08
2023-05-25T09:24:44.141Z,47.25
2023-05-25T09:27:47.656Z,43.78
2023-05-25T09:30:51.808Z,43.92
2023-05-25T09:34:00.325Z,45.85
2023-05-25T09:37:12.926Z,47.50
2023-05-25T09:40:17.604Z,48.92
2023-05-25T09:43:36.276Z,42.33
2023-05-25T09:46:44.873Z,45.13
2023-05-25T09:49:50.609Z,47.00
2023-05-25T09:53:00.992Z,46.72
2023-05-25T09:56:04.515Z,42.83
2023-05-25T09:59:08.116Z,42.38
2023-05-25T10:02:11.431Z,41.42
2023-05-25T10:05:14.767Z,44.28
2023-05-25T10:08:23.420Z,44.15
2023-05-25T10:11:28.369Z,46.25
2023-05-25T10:14:33.115Z,42.20
2023-05-25T10:17:39.341Z,41.53
2023-05-25T10:20:44.059Z,82.03
2023-05-25T10:23:51.999Z,43.15
2023-05-25T10:26:58.037Z,61.55
2023-05-25T10:30:02.949Z,41.15
2023-05-25T10:33:07.363Z,39.35
2023-05-25T10:36:13.451Z,42.22
2023-05-25T10:39:21.074Z,38.83
2023-05-25T10:42:24.787Z,36.80
2023-05-25T10:45:29.063Z,38.05
2023-05-25T10:48:38.799Z,37.15
2023-05-25T10:51:43.826Z,43.72
2023-05-25T10:54:49.969Z,37.08
2023-05-25T10:58:09.032Z,41.35
2023-05-25T11:01:14.079Z,36.88
2023-05-25T11:04:18.261Z,40.40
2023-05-25T11:07:23.386Z,36.67
2023-05-25T11:11:01.555Z,35.40
2023-05-25T11:14:04.882Z,34.78
2023-05-25T11:17:11.563Z,36.00
2023-05-25T11:20:34.147Z,42.95
2023-05-25T11:23:41.025Z,36.40
2023-05-25T11:27:00.940Z,33.67
2023-05-25T11:30:04.548Z,33.00
2023-05-25T11:33:09.044Z,34.88
2023-05-25T11:36:15.418Z,33.35
2023-05-25T11:39:23.497Z,33.90
2023-05-25T11:42:28.625Z,31.70
2023-05-25T11:45:33.415Z,31.98
2023-05-25T11:48:36.784Z,35.35
2023-05-25T11:51:40.184Z,34.00
2023-05-25T11:54:43.896Z,36.17
2023-05-25T11:57:48.806Z,37.08
2023-05-25T12:00:52.781Z,37.85
2023-05-25T12:03:57.004Z,34.03
2023-05-25T12:07:04.366Z,31.30
2023-05-25T12:10:08.830Z,31.55
2023-05-25T12:13:14.648Z,26.17
2023-05-25T12:16:17.988Z,28.67
2023-05-25T12:19:22.309Z,27.48
2023-05-25T12:22:25.590Z,28.40
2023-05-25T12:25:38.748Z,31.02
2023-05-25T12:29:12.011Z,28.70
2023-05-25T12:32:15.567Z,26.90
2023-05-25T12:35:18.790Z,25.67
2023-05-25T12:38:22.863Z,27.88
2023-05-25T12:41:26.358Z,26.77
2023-05-25T12:44:32.377Z,27.17
2023-05-25T12:47:35.866Z,27.80
2023-05-25T12:50:39.413Z,30.65
2023-05-25T12:53:50.286Z,27.30
2023-05-25T12:56:56.711Z,27.73
2023-05-25T13:00:01.402Z,27.08
2023-05-25T13:03:05.365Z,25.77
2023-05-25T13:06:09.051Z,25.75
2023-05-25T13:09:14.826Z,25.38
2023-05-25T13:12:18.302Z,26.70
2023-05-25T13:15:23.199Z,26.35
2023-05-25T13:18:26.583Z,30.95
2023-05-25T13:21:29.965Z,59.78
2023-05-25T13:24:33.581Z,30.17
2023-05-25T13:27:37.747Z,32.30
2023-05-25T13:30:44.226Z,30.45
2023-05-25T13:33:47.688Z,31.55
2023-05-25T13:36:50.993Z,33.40
2023-05-25T13:39:54.350Z,37.10
2023-05-25T13:42:57.582Z,34.25
2023-05-25T13:46:02.457Z,30.60
2023-05-25T13:49:06.449Z,30.67
2023-05-25T13:52:10.286Z,37.28
2023-05-25T13:55:13.656Z,35.33
2023-05-25T13:58:16.951Z,28.20
2023-05-25T14:01:21.941Z,29.17
2023-05-25T14:04:25.640Z,29.20
2023-05-25T14:07:28.896Z,28.17
2023-05-25T14:10:32.239Z,28.95
2023-05-25T14:13:36.945Z,28.63
2023-05-25T14:16:41.944Z,28.30
2023-05-25T14:19:45.338Z,30.38
2023-05-25T14:22:48.694Z,30.40
2023-05-25T14:25:51.972Z,28.17
2023-05-25T14:28:55.743Z,30.02
2023-05-25T14:32:01.197Z,29.42
2023-05-25T14:35:04.766Z,28.30
2023-05-25T14:38:08.165Z,30.80
2023-05-25T14:41:11.532Z,31.40
2023-05-25T14:44:15.510Z,31.27
2023-05-25T14:47:20.978Z,28.63
2023-05-25T14:50:24.316Z,33.08
2023-05-25T14:53:27.686Z,31.10
2023-05-25T14:56:31.000Z,31.67
2023-05-25T14:59:34.440Z,28.17
2023-05-25T15:02:39.209Z,29.80
2023-05-25T15:05:42.886Z,30.38
2023-05-25T15:08:46.274Z,29.95
2023-05-25T15:11:49.566Z,37.13
2023-05-25T15:14:52.890Z,29.30
2023-05-25T15:17:57.650Z,27.73
2023-05-25T15:21:01.516Z,27.95
2023-05-25T15:24:04.855Z,29.13
2023-05-25T15:27:09.155Z,26.95
2023-05-25T15:30:13.102Z,26.35
2023-05-25T15:33:17.752Z,29.50
2023-05-25T15:36:21.167Z,28.90
2023-05-25T15:39:24.397Z,27.25
2023-05-25T15:42:27.643Z,32.17
2023-05-25T15:45:31.128Z,31.40
2023-05-25T15:48:35.964Z,26.77
2023-05-25T15:51:43.859Z,25.38
2023-05-25T15:54:47.165Z,26.88
2023-05-25T15:57:50.434Z,25.83
2023-05-25T16:00:53.731Z,27.52
2023-05-25T16:03:59.174Z,27.77
2023-05-25T16:07:02.822Z,26.08
2023-05-25T16:10:07.362Z,27.02
2023-05-25T16:13:10.739Z,23.50
2023-05-25T16:16:14.150Z,24.23
2023-05-25T16:19:18.914Z,23.90
2023-05-25T16:22:22.283Z,28.73
2023-05-25T16:25:25.618Z,27.70
2023-05-25T16:28:28.932Z,31.08
2023-05-25T16:31:32.336Z,35.67
2023-05-25T16:34:37.024Z,31.50
2023-05-25T16:37:40.289Z,36.72
2023-05-25T16:40:43.634Z,37.58
2023-05-25T16:43:47.039Z,39.17
2023-05-25T16:46:50.828Z,37.15
2023-05-25T16:49:55.798Z,35.78
2023-05-25T16:52:59.099Z,37.05
2023-05-25T16:56:02.599Z,35.25
2023-05-25T16:59:06.766Z,31.33
2023-05-25T17:02:10.085Z,34.55
2023-05-25T17:05:14.841Z,38.58
2023-05-25T17:08:18.270Z,37.20
2023-05-25T17:11:26.221Z,36.38
2023-05-25T17:14:29.727Z,42.00
2023-05-25T17:17:33.136Z,35.13
2023-05-25T17:20:38.245Z,36.63
2023-05-25T17:23:41.654Z,32.50
2023-05-25T17:26:46.487Z,32.17
2023-05-25T17:29:49.834Z,32.88
2023-05-25T17:32:53.842Z,32.35
2023-05-25T17:35:59.667Z,34.30
2023-05-25T17:39:02.967Z,38.05
2023-05-25T17:42:07.568Z,40.67
2023-05-25T17:45:11.969Z,39.33
2023-05-25T17:48:15.413Z,38.35
2023-05-25T17:51:21.709Z,36.22
2023-05-25T17:54:26.002Z,33.40
2023-05-25T17:57:29.366Z,36.40
2023-05-25T18:00:32.885Z,37.15
2023-05-25T18:03:36.596Z,42.45
2023-05-25T18:06:41.726Z,41.95
2023-05-25T18:09:45.064Z,55.40
2023-05-25T18:12:52.095Z,41.90
2023-05-25T18:15:55.876Z,43.42
2023-05-25T18:18:59.290Z,56.63
2023-05-25T18:22:04.364Z,53.42
2023-05-25T18:25:08.537Z,59.63
2023-05-25T18:28:14.796Z,66.38
2023-05-25T18:31:18.399Z,89.93
2023-05-25T18:34:21.936Z,98.40
2023-05-25T18:37:28.988Z,98.93
2023-05-25T18:40:32.649Z,98.88
2023-05-25T18:43:36.323Z,96.85
2023-05-25T18:46:42.353Z,88.03
2023-05-25T18:49:48.582Z,84.50
2023-05-25T18:52:54.013Z,77.70
2023-05-25T18:55:57.756Z,69.38
2023-05-25T18:59:01.342Z,61.72
2023-05-25T19:02:05.009Z,60.92
2023-05-25T19:05:11.550Z,58.03
2023-05-25T19:08:16.840Z,58.15
2023-05-25T19:11:20.897Z,62.70
2023-05-25T19:14:25.065Z,59.58
2023-05-25T19:17:28.902Z,60.28
2023-05-25T19:20:33.686Z,61.33
2023-05-25T19:23:39.043Z,51.95
2023-05-25T19:26:42.566Z,59.22
2023-05-25T19:29:47.198Z,56.72
2023-05-25T19:32:50.732Z,51.50
2023-05-25T19:35:54.307Z,54.50
2023-05-25T19:38:59.424Z,49.55
2023-05-25T19:42:03.287Z,52.97
2023-05-25T19:45:07.696Z,51.65
2023-05-25T19:48:11.418Z,52.53
2023-05-25T19:51:15.230Z,51.33
2023-05-25T19:54:20.356Z,56.22
2023-05-25T19:57:26.168Z,55.33
2023-05-25T20:00:29.775Z,54.17
2023-05-25T20:03:33.498Z,55.72
2023-05-25T20:06:37.613Z,56.85
2023-05-25T20:09:43.026Z,55.75
2023-05-25T20:12:46.512Z,60.15
2023-05-25T20:15:50.234Z,58.05
2023-05-25T20:18:53.937Z,52.17
2023-05-25T20:21:58.113Z,55.70
2023-05-25T20:25:03.236Z,62.70
2023-05-25T20:28:06.898Z,63.00
2023-05-25T20:31:10.587Z,55.78
2023-05-25T20:34:16.678Z,66.70
2023-05-25T20:37:20.177Z,63.55
2023-05-25T20:40:26.730Z,67.35
2023-05-25T20:43:30.382Z,61.47
2023-05-25T20:46:34.204Z,60.28
2023-05-25T20:49:37.709Z,57.85
2023-05-25T20:52:41.707Z,57.15
2023-05-25T20:55:47.326Z,58.40
2023-05-25T20:58:51.195Z,61.03
2023-05-25T21:01:54.969Z,59.88
2023-05-25T21:04:58.451Z,62.55
2023-05-25T21:08:05.953Z,64.05
2023-05-25T21:11:10.914Z,68.25
2023-05-25T21:14:14.210Z,73.80
2023-05-25T21:17:19.618Z,73.05
2023-05-25T21:20:23.167Z,80.88
2023-05-25T21:23:28.586Z,81.03
2023-05-25T21:26:33.349Z,80.65
2023-05-25T21:29:36.786Z,83.10
2023-05-25T21:32:40.180Z,72.25
2023-05-25T21:35:43.840Z,84.47
2023-05-25T21:38:47.434Z,77.00
2023-05-25T21:41:53.740Z,82.10
2023-05-25T21:44:57.096Z,75.30
2023-05-25T21:48:00.492Z,75.35
2023-05-25T21:51:04.120Z,75.03
2023-05-25T21:54:07.698Z,76.18
2023-05-25T21:57:12.636Z,72.88
2023-05-25T22:00:17.706Z,79.28
2023-05-25T22:03:21.521Z,72.45
2023-05-25T22:06:24.960Z,74.38
2023-05-25T22:09:30.195Z,72.00
2023-05-25T22:12:34.978Z,71.18
2023-05-25T22:15:38.302Z,69.32
2023-05-25T22:18:41.621Z,70.50
2023-05-25T22:21:44.904Z,65.25
2023-05-25T22:24:48.327Z,68.65
2023-05-25T22:27:53.146Z,65.22
2023-05-25T22:30:56.457Z,61.20
2023-05-25T22:39:01.846Z,57.80
2023-05-25T22:42:06.656Z,58.55
2023-05-25T22:45:12.179Z,56.58
2023-05-25T22:48:15.604Z,51.80
2023-05-25T22:51:18.897Z,58.95
2023-05-25T22:54:22.122Z,56.72
2023-05-25T22:57:25.459Z,59.70
2023-05-25T23:00:30.279Z,56.55
2023-05-25T23:03:33.736Z,53.50
2023-05-25T23:06:37.196Z,54.03
2023-05-25T23:09:40.532Z,50.72
2023-05-25T23:12:43.789Z,54.80
2023-05-25T23:15:48.644Z,53.03
2023-05-25T23:18:51.877Z,51.72
2023-05-25T23:21:56.479Z,52.60
2023-05-25T23:24:59.769Z,51.17
2023-05-25T23:28:02.976Z,56.33
2023-05-25T23:31:07.806Z,57.42
2023-05-25T23:34:11.038Z,62.25
2023-05-25T23:37:14.366Z,61.70
2023-05-25T23:40:17.696Z,61.05
2023-05-25T23:43:21.169Z,67.50
2023-05-25T23:46:26.171Z,60.60
2023-05-25T23:49:29.600Z,62.15
2023-05-25T23:52:32.902Z,57.75
2023-05-25T23:55:36.258Z,62.92
2023-05-25T23:58:39.528Z,62.25
